sensor_id;sensor_type;location;lat;lon;timestamp;P1;durP1;ratioP1;P2;durP2;ratioP2
25023;SDS011;13033;50.936;5.334;2023-04-23T00:01:37;37.72;;;25.85;;
25023;SDS011;13033;50.936;5.334;2023-04-23T00:04:05;37.15;;;26.05;;
25023;SDS011;13033;50.936;5.334;2023-04-23T00:06:32;34.38;;;25.35;;
25023;SDS011;13033;50.936;5.334;2023-04-23T00:08:59;33.17;;;24.38;;
25023;SDS011;13033;50.936;5.334;2023-04-23T00:11:25;35.47;;;25.45;;
25023;SDS011;13033;50.936;5.334;2023-04-23T00:13:51;35.30;;;24.65;;
25023;SDS011;13033;50.936;5.334;2023-04-23T00:16:18;32.25;;;24.13;;
25023;SDS011;13033;50.936;5.334;2023-04-23T00:18:45;32.05;;;23.38;;
25023;SDS011;13033;50.936;5.334;2023-04-23T00:21:11;32.20;;;22.95;;
25023;SDS011;13033;50.936;5.334;2023-04-23T00:23:37;32.47;;;23.88;;
25023;SDS011;13033;50.936;5.334;2023-04-23T00:26:03;33.38;;;23.88;;
25023;SDS011;13033;50.936;5.334;2023-04-23T00:28:29;29.65;;;22.80;;
25023;SDS011;13033;50.936;5.334;2023-04-23T00:30:55;34.03;;;22.48;;
25023;SDS011;13033;50.936;5.334;2023-04-23T00:33:21;33.22;;;23.00;;
25023;SDS011;13033;50.936;5.334;2023-04-23T00:35:46;30.05;;;22.58;;
25023;SDS011;13033;50.936;5.334;2023-04-23T00:38:12;28.08;;;21.50;;
25023;SDS011;13033;50.936;5.334;2023-04-23T00:40:38;29.67;;;22.05;;
25023;SDS011;13033;50.936;5.334;2023-04-23T00:43:04;31.65;;;22.55;;
25023;SDS011;13033;50.936;5.334;2023-04-23T00:45:31;27.83;;;21.17;;
25023;SDS011;13033;50.936;5.334;2023-04-23T00:47:57;31.50;;;22.25;;
25023;SDS011;13033;50.936;5.334;2023-04-23T00:50:23;30.17;;;21.67;;
25023;SDS011;13033;50.936;5.334;2023-04-23T00:52:48;28.73;;;21.08;;
25023;SDS011;13033;50.936;5.334;2023-04-23T00:55:14;28.25;;;20.73;;
25023;SDS011;13033;50.936;5.334;2023-04-23T00:57:40;31.23;;;22.30;;
25023;SDS011;13033;50.936;5.334;2023-04-23T01:00:06;30.17;;;22.50;;
25023;SDS011;13033;50.936;5.334;2023-04-23T01:02:33;29.70;;;22.38;;
25023;SDS011;13033;50.936;5.334;2023-04-23T01:05:01;30.75;;;22.10;;
25023;SDS011;13033;50.936;5.334;2023-04-23T01:07:28;35.10;;;22.80;;
25023;SDS011;13033;50.936;5.334;2023-04-23T01:09:58;31.45;;;22.77;;
25023;SDS011;13033;50.936;5.334;2023-04-23T01:12:24;33.15;;;24.27;;
25023;SDS011;13033;50.936;5.334;2023-04-23T01:14:50;30.60;;;21.95;;
25023;SDS011;13033;50.936;5.334;2023-04-23T01:17:16;31.63;;;21.85;;
25023;SDS011;13033;50.936;5.334;2023-04-23T01:19:42;30.40;;;22.33;;
25023;SDS011;13033;50.936;5.334;2023-04-23T01:22:11;29.98;;;22.42;;
25023;SDS011;13033;50.936;5.334;2023-04-23T01:24:38;33.38;;;23.83;;
25023;SDS011;13033;50.936;5.334;2023-04-23T01:27:05;32.38;;;22.55;;
25023;SDS011;13033;50.936;5.334;2023-04-23T01:29:31;32.83;;;23.15;;
25023;SDS011;13033;50.936;5.334;2023-04-23T01:31:58;32.10;;;22.05;;
25023;SDS011;13033;50.936;5.334;2023-04-23T01:34:24;29.45;;;21.75;;
25023;SDS011;13033;50.936;5.334;2023-04-23T01:36:50;27.95;;;21.92;;
25023;SDS011;13033;50.936;5.334;2023-04-23T01:39:17;31.90;;;21.92;;
25023;SDS011;13033;50.936;5.334;2023-04-23T01:41:42;29.65;;;21.13;;
25023;SDS011;13033;50.936;5.334;2023-04-23T01:44:08;30.05;;;20.90;;
25023;SDS011;13033;50.936;5.334;2023-04-23T01:46:34;29.85;;;20.58;;
25023;SDS011;13033;50.936;5.334;2023-04-23T01:49:00;30.25;;;21.33;;
25023;SDS011;13033;50.936;5.334;2023-04-23T01:51:28;26.63;;;20.70;;
25023;SDS011;13033;50.936;5.334;2023-04-23T01:53:54;27.65;;;21.27;;
25023;SDS011;13033;50.936;5.334;2023-04-23T01:56:24;28.55;;;20.33;;
25023;SDS011;13033;50.936;5.334;2023-04-23T01:58:51;30.85;;;20.08;;
25023;SDS011;13033;50.936;5.334;2023-04-23T02:01:17;27.83;;;21.02;;
25023;SDS011;13033;50.936;5.334;2023-04-23T02:03:42;29.02;;;20.17;;
25023;SDS011;13033;50.936;5.334;2023-04-23T02:06:09;25.23;;;20.17;;
25023;SDS011;13033;50.936;5.334;2023-04-23T02:08:36;29.42;;;18.70;;
25023;SDS011;13033;50.936;5.334;2023-04-23T02:11:03;27.30;;;18.23;;
25023;SDS011;13033;50.936;5.334;2023-04-23T02:13:30;25.98;;;19.50;;
25023;SDS011;13033;50.936;5.334;2023-04-23T02:15:56;27.50;;;19.10;;
25023;SDS011;13033;50.936;5.334;2023-04-23T02:18:22;27.10;;;19.17;;
25023;SDS011;13033;50.936;5.334;2023-04-23T02:20:48;26.90;;;18.45;;
25023;SDS011;13033;50.936;5.334;2023-04-23T02:23:13;24.33;;;18.30;;
25023;SDS011;13033;50.936;5.334;2023-04-23T02:25:39;26.08;;;19.30;;
25023;SDS011;13033;50.936;5.334;2023-04-23T02:28:05;23.80;;;18.65;;
25023;SDS011;13033;50.936;5.334;2023-04-23T02:30:34;27.88;;;19.02;;
25023;SDS011;13033;50.936;5.334;2023-04-23T02:33:00;25.05;;;18.15;;
25023;SDS011;13033;50.936;5.334;2023-04-23T02:35:25;25.80;;;18.20;;
25023;SDS011;13033;50.936;5.334;2023-04-23T02:37:52;25.10;;;18.48;;
25023;SDS011;13033;50.936;5.334;2023-04-23T02:40:18;24.65;;;18.20;;
25023;SDS011;13033;50.936;5.334;2023-04-23T02:42:44;26.27;;;18.50;;
25023;SDS011;13033;50.936;5.334;2023-04-23T02:45:10;21.75;;;17.77;;
25023;SDS011;13033;50.936;5.334;2023-04-23T02:47:36;27.23;;;18.73;;
25023;SDS011;13033;50.936;5.334;2023-04-23T02:50:02;24.95;;;18.48;;
25023;SDS011;13033;50.936;5.334;2023-04-23T02:52:30;25.63;;;18.10;;
25023;SDS011;13033;50.936;5.334;2023-04-23T02:54:56;24.73;;;17.95;;
25023;SDS011;13033;50.936;5.334;2023-04-23T02:57:22;23.60;;;17.52;;
25023;SDS011;13033;50.936;5.334;2023-04-23T02:59:48;22.42;;;17.73;;
25023;SDS011;13033;50.936;5.334;2023-04-23T03:02:14;24.85;;;18.80;;
25023;SDS011;13033;50.936;5.334;2023-04-23T03:04:40;23.48;;;18.25;;
25023;SDS011;13033;50.936;5.334;2023-04-23T03:07:06;22.80;;;18.38;;
25023;SDS011;13033;50.936;5.334;2023-04-23T03:09:31;25.17;;;18.25;;
25023;SDS011;13033;50.936;5.334;2023-04-23T03:11:57;26.50;;;18.40;;
25023;SDS011;13033;50.936;5.334;2023-04-23T03:14:23;25.10;;;18.45;;
25023;SDS011;13033;50.936;5.334;2023-04-23T03:16:48;22.83;;;17.83;;
25023;SDS011;13033;50.936;5.334;2023-04-23T03:19:14;24.23;;;16.85;;
25023;SDS011;13033;50.936;5.334;2023-04-23T03:21:40;22.35;;;16.38;;
25023;SDS011;13033;50.936;5.334;2023-04-23T03:24:06;23.95;;;17.52;;
25023;SDS011;13033;50.936;5.334;2023-04-23T03:26:31;22.15;;;16.83;;
25023;SDS011;13033;50.936;5.334;2023-04-23T03:28:58;25.35;;;17.33;;
25023;SDS011;13033;50.936;5.334;2023-04-23T03:31:24;23.67;;;17.35;;
25023;SDS011;13033;50.936;5.334;2023-04-23T03:33:50;22.77;;;16.75;;
25023;SDS011;13033;50.936;5.334;2023-04-23T03:36:15;22.48;;;16.90;;
25023;SDS011;13033;50.936;5.334;2023-04-23T03:38:42;21.38;;;16.00;;
25023;SDS011;13033;50.936;5.334;2023-04-23T03:41:07;20.48;;;16.27;;
25023;SDS011;13033;50.936;5.334;2023-04-23T03:43:33;22.05;;;15.93;;
25023;SDS011;13033;50.936;5.334;2023-04-23T03:45:58;20.50;;;15.52;;
25023;SDS011;13033;50.936;5.334;2023-04-23T03:48:24;23.10;;;16.38;;
25023;SDS011;13033;50.936;5.334;2023-04-23T03:50:50;23.05;;;15.68;;
25023;SDS011;13033;50.936;5.334;2023-04-23T03:53:15;22.80;;;16.42;;
25023;SDS011;13033;50.936;5.334;2023-04-23T03:55:42;21.33;;;16.65;;
25023;SDS011;13033;50.936;5.334;2023-04-23T03:58:08;22.55;;;15.70;;
25023;SDS011;13033;50.936;5.334;2023-04-23T04:00:33;18.70;;;14.25;;
25023;SDS011;13033;50.936;5.334;2023-04-23T04:02:59;18.55;;;14.95;;
25023;SDS011;13033;50.936;5.334;2023-04-23T04:05:26;19.42;;;14.57;;
25023;SDS011;13033;50.936;5.334;2023-04-23T04:07:52;19.10;;;14.27;;
25023;SDS011;13033;50.936;5.334;2023-04-23T04:10:18;18.00;;;14.02;;
25023;SDS011;13033;50.936;5.334;2023-04-23T04:12:44;18.73;;;14.50;;
25023;SDS011;13033;50.936;5.334;2023-04-23T04:15:11;18.05;;;13.85;;
25023;SDS011;13033;50.936;5.334;2023-04-23T04:17:37;16.83;;;13.23;;
25023;SDS011;13033;50.936;5.334;2023-04-23T04:20:03;18.23;;;13.90;;
25023;SDS011;13033;50.936;5.334;2023-04-23T04:22:32;18.98;;;13.77;;
25023;SDS011;13033;50.936;5.334;2023-04-23T04:24:58;18.35;;;13.18;;
25023;SDS011;13033;50.936;5.334;2023-04-23T04:27:23;18.92;;;12.88;;
25023;SDS011;13033;50.936;5.334;2023-04-23T04:29:49;17.67;;;13.27;;
25023;SDS011;13033;50.936;5.334;2023-04-23T04:32:15;19.38;;;13.13;;
25023;SDS011;13033;50.936;5.334;2023-04-23T04:34:41;19.40;;;12.63;;
25023;SDS011;13033;50.936;5.334;2023-04-23T04:37:07;17.05;;;11.60;;
25023;SDS011;13033;50.936;5.334;2023-04-23T04:39:34;18.98;;;12.18;;
25023;SDS011;13033;50.936;5.334;2023-04-23T04:42:00;14.95;;;11.73;;
25023;SDS011;13033;50.936;5.334;2023-04-23T04:44:27;19.05;;;11.80;;
25023;SDS011;13033;50.936;5.334;2023-04-23T04:46:53;14.18;;;11.32;;
25023;SDS011;13033;50.936;5.334;2023-04-23T04:49:18;16.83;;;11.70;;
25023;SDS011;13033;50.936;5.334;2023-04-23T04:51:45;18.13;;;11.98;;
25023;SDS011;13033;50.936;5.334;2023-04-23T04:54:12;19.70;;;12.07;;
25023;SDS011;13033;50.936;5.334;2023-04-23T04:56:38;16.02;;;10.93;;
25023;SDS011;13033;50.936;5.334;2023-04-23T04:59:04;15.73;;;11.40;;
25023;SDS011;13033;50.936;5.334;2023-04-23T05:01:29;16.48;;;11.63;;
25023;SDS011;13033;50.936;5.334;2023-04-23T05:03:56;17.92;;;11.02;;
25023;SDS011;13033;50.936;5.334;2023-04-23T05:06:22;17.35;;;11.38;;
25023;SDS011;13033;50.936;5.334;2023-04-23T05:08:48;16.85;;;10.88;;
25023;SDS011;13033;50.936;5.334;2023-04-23T05:11:17;18.10;;;10.65;;
25023;SDS011;13033;50.936;5.334;2023-04-23T05:13:44;14.18;;;10.50;;
25023;SDS011;13033;50.936;5.334;2023-04-23T05:16:10;15.32;;;10.27;;
25023;SDS011;13033;50.936;5.334;2023-04-23T05:18:36;14.88;;;10.70;;
25023;SDS011;13033;50.936;5.334;2023-04-23T05:21:03;12.73;;;9.90;;
25023;SDS011;13033;50.936;5.334;2023-04-23T05:23:29;12.90;;;10.57;;
25023;SDS011;13033;50.936;5.334;2023-04-23T05:25:54;14.50;;;9.30;;
25023;SDS011;13033;50.936;5.334;2023-04-23T05:28:21;16.42;;;10.57;;
25023;SDS011;13033;50.936;5.334;2023-04-23T05:30:47;12.57;;;9.13;;
25023;SDS011;13033;50.936;5.334;2023-04-23T05:33:14;13.10;;;9.10;;
25023;SDS011;13033;50.936;5.334;2023-04-23T05:35:40;10.48;;;8.73;;
25023;SDS011;13033;50.936;5.334;2023-04-23T05:38:06;13.65;;;8.50;;
25023;SDS011;13033;50.936;5.334;2023-04-23T05:40:32;15.05;;;8.40;;
25023;SDS011;13033;50.936;5.334;2023-04-23T05:42:58;11.13;;;8.40;;
25023;SDS011;13033;50.936;5.334;2023-04-23T05:45:23;12.57;;;8.18;;
25023;SDS011;13033;50.936;5.334;2023-04-23T05:47:49;13.80;;;7.78;;
25023;SDS011;13033;50.936;5.334;2023-04-23T05:50:15;10.90;;;7.53;;
25023;SDS011;13033;50.936;5.334;2023-04-23T05:52:41;15.65;;;7.72;;
25023;SDS011;13033;50.936;5.334;2023-04-23T05:55:07;10.43;;;7.28;;
25023;SDS011;13033;50.936;5.334;2023-04-23T05:57:37;9.23;;;6.90;;
25023;SDS011;13033;50.936;5.334;2023-04-23T06:00:03;10.70;;;7.05;;
25023;SDS011;13033;50.936;5.334;2023-04-23T06:02:30;13.02;;;6.97;;
25023;SDS011;13033;50.936;5.334;2023-04-23T06:04:57;12.35;;;6.85;;
25023;SDS011;13033;50.936;5.334;2023-04-23T06:07:23;11.93;;;7.72;;
25023;SDS011;13033;50.936;5.334;2023-04-23T06:09:49;12.38;;;7.32;;
25023;SDS011;13033;50.936;5.334;2023-04-23T06:12:15;10.52;;;6.28;;
25023;SDS011;13033;50.936;5.334;2023-04-23T06:14:40;12.02;;;6.75;;
25023;SDS011;13033;50.936;5.334;2023-04-23T06:17:06;11.18;;;5.93;;
25023;SDS011;13033;50.936;5.334;2023-04-23T06:19:32;11.88;;;6.35;;
25023;SDS011;13033;50.936;5.334;2023-04-23T06:21:57;13.07;;;6.38;;
25023;SDS011;13033;50.936;5.334;2023-04-23T06:24:23;9.77;;;6.15;;
25023;SDS011;13033;50.936;5.334;2023-04-23T06:26:49;11.35;;;6.10;;
25023;SDS011;13033;50.936;5.334;2023-04-23T06:29:14;10.73;;;6.32;;
25023;SDS011;13033;50.936;5.334;2023-04-23T06:31:40;8.45;;;5.70;;
25023;SDS011;13033;50.936;5.334;2023-04-23T06:34:06;8.82;;;5.47;;
25023;SDS011;13033;50.936;5.334;2023-04-23T06:36:32;8.90;;;6.20;;
25023;SDS011;13033;50.936;5.334;2023-04-23T06:38:57;12.15;;;5.88;;
25023;SDS011;13033;50.936;5.334;2023-04-23T06:41:23;9.90;;;5.68;;
25023;SDS011;13033;50.936;5.334;2023-04-23T06:43:49;11.38;;;5.82;;
25023;SDS011;13033;50.936;5.334;2023-04-23T06:46:15;10.25;;;5.68;;
25023;SDS011;13033;50.936;5.334;2023-04-23T06:48:40;9.70;;;5.75;;
25023;SDS011;13033;50.936;5.334;2023-04-23T06:51:06;10.50;;;5.38;;
25023;SDS011;13033;50.936;5.334;2023-04-23T06:53:32;7.30;;;5.43;;
25023;SDS011;13033;50.936;5.334;2023-04-23T06:55:58;8.77;;;5.57;;
25023;SDS011;13033;50.936;5.334;2023-04-23T06:58:23;9.65;;;5.63;;
25023;SDS011;13033;50.936;5.334;2023-04-23T07:00:55;7.43;;;5.32;;
25023;SDS011;13033;50.936;5.334;2023-04-23T07:03:24;7.78;;;4.72;;
25023;SDS011;13033;50.936;5.334;2023-04-23T07:05:51;11.40;;;5.53;;
25023;SDS011;13033;50.936;5.334;2023-04-23T07:08:18;7.78;;;4.80;;
25023;SDS011;13033;50.936;5.334;2023-04-23T07:10:45;9.30;;;5.25;;
25023;SDS011;13033;50.936;5.334;2023-04-23T07:13:10;8.02;;;4.90;;
25023;SDS011;13033;50.936;5.334;2023-04-23T07:15:36;10.65;;;5.05;;
25023;SDS011;13033;50.936;5.334;2023-04-23T07:18:02;9.13;;;5.25;;
25023;SDS011;13033;50.936;5.334;2023-04-23T07:20:29;8.70;;;5.15;;
25023;SDS011;13033;50.936;5.334;2023-04-23T07:22:54;12.85;;;4.80;;
25023;SDS011;13033;50.936;5.334;2023-04-23T07:25:21;9.57;;;4.57;;
25023;SDS011;13033;50.936;5.334;2023-04-23T07:27:54;10.35;;;4.30;;
25023;SDS011;13033;50.936;5.334;2023-04-23T07:30:21;6.95;;;3.88;;
25023;SDS011;13033;50.936;5.334;2023-04-23T07:32:50;10.32;;;4.10;;
25023;SDS011;13033;50.936;5.334;2023-04-23T07:35:16;8.50;;;3.80;;
25023;SDS011;13033;50.936;5.334;2023-04-23T07:37:42;14.82;;;4.47;;
25023;SDS011;13033;50.936;5.334;2023-04-23T07:40:07;10.05;;;4.00;;
25023;SDS011;13033;50.936;5.334;2023-04-23T07:42:33;12.98;;;4.22;;
25023;SDS011;13033;50.936;5.334;2023-04-23T07:44:59;11.38;;;3.97;;
25023;SDS011;13033;50.936;5.334;2023-04-23T07:47:25;9.70;;;3.78;;
25023;SDS011;13033;50.936;5.334;2023-04-23T07:49:51;10.20;;;4.05;;
25023;SDS011;13033;50.936;5.334;2023-04-23T07:52:16;11.02;;;3.95;;
25023;SDS011;13033;50.936;5.334;2023-04-23T07:54:42;8.68;;;3.28;;
25023;SDS011;13033;50.936;5.334;2023-04-23T07:57:08;7.05;;;3.55;;
25023;SDS011;13033;50.936;5.334;2023-04-23T07:59:35;13.98;;;3.80;;
25023;SDS011;13033;50.936;5.334;2023-04-23T08:02:03;11.02;;;3.97;;
25023;SDS011;13033;50.936;5.334;2023-04-23T08:04:29;12.05;;;3.13;;
25023;SDS011;13033;50.936;5.334;2023-04-23T08:06:54;14.02;;;3.60;;
25023;SDS011;13033;50.936;5.334;2023-04-23T08:09:20;10.40;;;3.85;;
25023;SDS011;13033;50.936;5.334;2023-04-23T08:11:46;8.60;;;3.42;;
25023;SDS011;13033;50.936;5.334;2023-04-23T08:14:12;8.77;;;3.47;;
25023;SDS011;13033;50.936;5.334;2023-04-23T08:16:38;10.82;;;3.25;;
25023;SDS011;13033;50.936;5.334;2023-04-23T08:19:04;13.65;;;3.53;;
25023;SDS011;13033;50.936;5.334;2023-04-23T08:21:30;8.70;;;3.30;;
25023;SDS011;13033;50.936;5.334;2023-04-23T08:23:56;8.23;;;3.03;;
25023;SDS011;13033;50.936;5.334;2023-04-23T08:26:22;9.05;;;3.45;;
25023;SDS011;13033;50.936;5.334;2023-04-23T08:28:48;9.93;;;3.40;;
25023;SDS011;13033;50.936;5.334;2023-04-23T08:31:13;9.68;;;3.88;;
25023;SDS011;13033;50.936;5.334;2023-04-23T08:33:40;9.98;;;3.65;;
25023;SDS011;13033;50.936;5.334;2023-04-23T08:36:06;8.20;;;3.08;;
25023;SDS011;13033;50.936;5.334;2023-04-23T08:38:31;7.53;;;4.07;;
25023;SDS011;13033;50.936;5.334;2023-04-23T08:40:58;8.02;;;3.72;;
25023;SDS011;13033;50.936;5.334;2023-04-23T08:43:27;8.82;;;3.78;;
25023;SDS011;13033;50.936;5.334;2023-04-23T08:45:59;8.13;;;3.25;;
25023;SDS011;13033;50.936;5.334;2023-04-23T08:48:28;10.32;;;4.03;;
25023;SDS011;13033;50.936;5.334;2023-04-23T08:50:55;8.18;;;3.42;;
25023;SDS011;13033;50.936;5.334;2023-04-23T08:53:21;11.57;;;3.28;;
25023;SDS011;13033;50.936;5.334;2023-04-23T08:55:51;6.00;;;2.97;;
25023;SDS011;13033;50.936;5.334;2023-04-23T08:58:20;8.88;;;3.45;;
25023;SDS011;13033;50.936;5.334;2023-04-23T09:00:46;8.10;;;3.40;;
25023;SDS011;13033;50.936;5.334;2023-04-23T09:03:13;8.05;;;3.45;;
25023;SDS011;13033;50.936;5.334;2023-04-23T09:05:43;6.80;;;3.22;;
25023;SDS011;13033;50.936;5.334;2023-04-23T09:08:09;10.35;;;3.80;;
25023;SDS011;13033;50.936;5.334;2023-04-23T09:10:36;8.75;;;2.90;;
25023;SDS011;13033;50.936;5.334;2023-04-23T09:13:04;7.65;;;2.78;;
25023;SDS011;13033;50.936;5.334;2023-04-23T09:15:30;6.63;;;2.70;;
25023;SDS011;13033;50.936;5.334;2023-04-23T09:17:56;13.32;;;2.90;;
25023;SDS011;13033;50.936;5.334;2023-04-23T09:20:23;7.25;;;2.53;;
25023;SDS011;13033;50.936;5.334;2023-04-23T09:22:50;12.25;;;3.15;;
25023;SDS011;13033;50.936;5.334;2023-04-23T09:25:19;10.68;;;3.20;;
25023;SDS011;13033;50.936;5.334;2023-04-23T09:27:47;9.95;;;3.08;;
25023;SDS011;13033;50.936;5.334;2023-04-23T09:30:14;12.50;;;3.55;;
25023;SDS011;13033;50.936;5.334;2023-04-23T09:32:41;7.10;;;2.70;;
25023;SDS011;13033;50.936;5.334;2023-04-23T09:35:11;7.85;;;2.78;;
25023;SDS011;13033;50.936;5.334;2023-04-23T09:37:42;6.25;;;2.50;;
25023;SDS011;13033;50.936;5.334;2023-04-23T09:40:13;4.45;;;2.60;;
25023;SDS011;13033;50.936;5.334;2023-04-23T09:42:39;6.55;;;2.70;;
25023;SDS011;13033;50.936;5.334;2023-04-23T09:45:06;9.05;;;2.65;;
25023;SDS011;13033;50.936;5.334;2023-04-23T09:47:33;7.13;;;2.30;;
25023;SDS011;13033;50.936;5.334;2023-04-23T09:50:03;7.85;;;2.40;;
25023;SDS011;13033;50.936;5.334;2023-04-23T09:52:30;6.72;;;2.17;;
25023;SDS011;13033;50.936;5.334;2023-04-23T09:54:56;8.30;;;2.15;;
25023;SDS011;13033;50.936;5.334;2023-04-23T09:57:26;4.20;;;1.83;;
25023;SDS011;13033;50.936;5.334;2023-04-23T09:59:52;7.40;;;2.20;;
25023;SDS011;13033;50.936;5.334;2023-04-23T10:02:25;6.40;;;2.38;;
25023;SDS011;13033;50.936;5.334;2023-04-23T10:04:53;6.43;;;2.50;;
25023;SDS011;13033;50.936;5.334;2023-04-23T10:07:19;6.95;;;2.50;;
25023;SDS011;13033;50.936;5.334;2023-04-23T10:09:45;7.65;;;2.20;;
25023;SDS011;13033;50.936;5.334;2023-04-23T10:12:12;8.25;;;2.53;;
25023;SDS011;13033;50.936;5.334;2023-04-23T10:14:38;6.93;;;2.17;;
25023;SDS011;13033;50.936;5.334;2023-04-23T10:17:06;9.23;;;1.90;;
25023;SDS011;13033;50.936;5.334;2023-04-23T10:19:33;7.78;;;2.17;;
25023;SDS011;13033;50.936;5.334;2023-04-23T10:22:04;6.40;;;1.87;;
25023;SDS011;13033;50.936;5.334;2023-04-23T10:24:35;6.20;;;1.73;;
25023;SDS011;13033;50.936;5.334;2023-04-23T10:27:04;11.43;;;2.10;;
25023;SDS011;13033;50.936;5.334;2023-04-23T10:29:37;7.03;;;1.95;;
25023;SDS011;13033;50.936;5.334;2023-04-23T10:32:04;6.97;;;1.95;;
25023;SDS011;13033;50.936;5.334;2023-04-23T10:34:31;4.95;;;1.90;;
25023;SDS011;13033;50.936;5.334;2023-04-23T10:36:58;8.77;;;1.80;;
25023;SDS011;13033;50.936;5.334;2023-04-23T10:39:29;9.55;;;1.88;;
25023;SDS011;13033;50.936;5.334;2023-04-23T10:41:56;10.32;;;2.30;;
25023;SDS011;13033;50.936;5.334;2023-04-23T10:44:30;6.47;;;1.65;;
25023;SDS011;13033;50.936;5.334;2023-04-23T10:46:57;5.97;;;1.98;;
25023;SDS011;13033;50.936;5.334;2023-04-23T10:49:28;6.97;;;1.80;;
25023;SDS011;13033;50.936;5.334;2023-04-23T10:52:14;10.18;;;1.90;;
25023;SDS011;13033;50.936;5.334;2023-04-23T10:54:42;5.40;;;1.98;;
25023;SDS011;13033;50.936;5.334;2023-04-23T10:57:09;6.28;;;1.80;;
25023;SDS011;13033;50.936;5.334;2023-04-23T10:59:39;10.25;;;2.20;;
25023;SDS011;13033;50.936;5.334;2023-04-23T11:02:15;9.25;;;2.25;;
25023;SDS011;13033;50.936;5.334;2023-04-23T11:04:44;4.82;;;2.00;;
25023;SDS011;13033;50.936;5.334;2023-04-23T11:07:11;8.27;;;1.95;;
25023;SDS011;13033;50.936;5.334;2023-04-23T11:09:47;6.97;;;1.67;;
25023;SDS011;13033;50.936;5.334;2023-04-23T11:14:51;8.00;;;2.08;;
25023;SDS011;13033;50.936;5.334;2023-04-23T11:17:21;12.70;;;2.45;;
25023;SDS011;13033;50.936;5.334;2023-04-23T11:22:44;7.13;;;1.70;;
25023;SDS011;13033;50.936;5.334;2023-04-23T11:25:20;4.07;;;1.35;;
25023;SDS011;13033;50.936;5.334;2023-04-23T11:27:51;6.13;;;2.03;;
25023;SDS011;13033;50.936;5.334;2023-04-23T11:30:22;6.97;;;1.90;;
25023;SDS011;13033;50.936;5.334;2023-04-23T11:32:53;5.32;;;1.75;;
25023;SDS011;13033;50.936;5.334;2023-04-23T11:35:20;7.68;;;1.75;;
25023;SDS011;13033;50.936;5.334;2023-04-23T11:37:47;8.73;;;2.03;;
25023;SDS011;13033;50.936;5.334;2023-04-23T11:40:14;6.38;;;1.63;;
25023;SDS011;13033;50.936;5.334;2023-04-23T11:42:47;8.00;;;1.90;;
25023;SDS011;13033;50.936;5.334;2023-04-23T11:45:19;7.82;;;1.48;;
25023;SDS011;13033;50.936;5.334;2023-04-23T11:47:47;7.60;;;1.77;;
25023;SDS011;13033;50.936;5.334;2023-04-23T11:50:21;5.78;;;1.70;;
25023;SDS011;13033;50.936;5.334;2023-04-23T11:52:47;7.88;;;1.65;;
25023;SDS011;13033;50.936;5.334;2023-04-23T11:55:13;5.93;;;1.70;;
25023;SDS011;13033;50.936;5.334;2023-04-23T11:57:42;5.40;;;1.73;;
25023;SDS011;13033;50.936;5.334;2023-04-23T12:00:19;6.05;;;1.88;;
25023;SDS011;13033;50.936;5.334;2023-04-23T12:02:56;7.50;;;1.83;;
25023;SDS011;13033;50.936;5.334;2023-04-23T12:05:29;5.88;;;1.58;;
25023;SDS011;13033;50.936;5.334;2023-04-23T12:08:05;3.90;;;1.55;;
25023;SDS011;13033;50.936;5.334;2023-04-23T12:10:32;8.90;;;1.90;;
25023;SDS011;13033;50.936;5.334;2023-04-23T12:13:05;5.80;;;1.77;;
25023;SDS011;13033;50.936;5.334;2023-04-23T12:15:31;8.63;;;2.08;;
25023;SDS011;13033;50.936;5.334;2023-04-23T12:18:07;7.68;;;1.70;;
25023;SDS011;13033;50.936;5.334;2023-04-23T12:20:34;5.95;;;1.73;;
25023;SDS011;13033;50.936;5.334;2023-04-23T12:23:03;6.55;;;1.60;;
25023;SDS011;13033;50.936;5.334;2023-04-23T12:25:31;6.07;;;1.80;;
25023;SDS011;13033;50.936;5.334;2023-04-23T12:28:00;7.57;;;2.00;;
25023;SDS011;13033;50.936;5.334;2023-04-23T12:30:29;7.30;;;2.53;;
25023;SDS011;13033;50.936;5.334;2023-04-23T12:33:02;12.13;;;3.17;;
25023;SDS011;13033;50.936;5.334;2023-04-23T12:35:40;5.07;;;1.75;;
25023;SDS011;13033;50.936;5.334;2023-04-23T12:38:08;7.22;;;1.80;;
25023;SDS011;13033;50.936;5.334;2023-04-23T12:40:52;6.35;;;1.98;;
25023;SDS011;13033;50.936;5.334;2023-04-23T12:43:19;6.75;;;1.70;;
25023;SDS011;13033;50.936;5.334;2023-04-23T12:45:45;5.15;;;2.00;;
25023;SDS011;13033;50.936;5.334;2023-04-23T12:48:11;7.88;;;2.25;;
25023;SDS011;13033;50.936;5.334;2023-04-23T12:50:37;5.88;;;2.10;;
25023;SDS011;13033;50.936;5.334;2023-04-23T12:53:03;5.80;;;1.55;;
25023;SDS011;13033;50.936;5.334;2023-04-23T12:55:29;6.00;;;1.77;;
25023;SDS011;13033;50.936;5.334;2023-04-23T12:57:55;4.78;;;1.92;;
25023;SDS011;13033;50.936;5.334;2023-04-23T13:00:22;8.98;;;1.67;;
25023;SDS011;13033;50.936;5.334;2023-04-23T13:02:48;4.25;;;1.40;;
25023;SDS011;13033;50.936;5.334;2023-04-23T13:05:13;7.18;;;1.80;;
25023;SDS011;13033;50.936;5.334;2023-04-23T13:07:39;3.13;;;1.40;;
25023;SDS011;13033;50.936;5.334;2023-04-23T13:10:06;3.58;;;1.23;;
25023;SDS011;13033;50.936;5.334;2023-04-23T13:12:32;4.50;;;1.17;;
25023;SDS011;13033;50.936;5.334;2023-04-23T13:14:58;3.53;;;1.42;;
25023;SDS011;13033;50.936;5.334;2023-04-23T13:17:23;5.47;;;1.10;;
25023;SDS011;13033;50.936;5.334;2023-04-23T13:19:50;3.88;;;1.30;;
25023;SDS011;13033;50.936;5.334;2023-04-23T13:22:16;5.55;;;1.30;;
25023;SDS011;13033;50.936;5.334;2023-04-23T13:24:42;4.95;;;2.05;;
25023;SDS011;13033;50.936;5.334;2023-04-23T13:27:08;3.53;;;1.30;;
25023;SDS011;13033;50.936;5.334;2023-04-23T13:29:33;5.57;;;1.40;;
25023;SDS011;13033;50.936;5.334;2023-04-23T13:31:59;8.38;;;1.88;;
25023;SDS011;13033;50.936;5.334;2023-04-23T13:34:25;8.38;;;1.83;;
25023;SDS011;13033;50.936;5.334;2023-04-23T13:36:51;5.32;;;1.67;;
25023;SDS011;13033;50.936;5.334;2023-04-23T13:39:16;3.88;;;1.30;;
25023;SDS011;13033;50.936;5.334;2023-04-23T13:41:42;4.93;;;1.60;;
25023;SDS011;13033;50.936;5.334;2023-04-23T13:44:08;4.05;;;1.35;;
25023;SDS011;13033;50.936;5.334;2023-04-23T13:46:34;7.20;;;1.83;;
25023;SDS011;13033;50.936;5.334;2023-04-23T13:49:00;5.70;;;1.85;;
25023;SDS011;13033;50.936;5.334;2023-04-23T13:51:26;4.65;;;1.30;;
25023;SDS011;13033;50.936;5.334;2023-04-23T13:53:51;4.90;;;1.83;;
25023;SDS011;13033;50.936;5.334;2023-04-23T13:56:17;3.55;;;1.45;;
25023;SDS011;13033;50.936;5.334;2023-04-23T13:58:43;6.75;;;1.27;;
25023;SDS011;13033;50.936;5.334;2023-04-23T14:01:11;4.82;;;1.30;;
25023;SDS011;13033;50.936;5.334;2023-04-23T14:03:38;3.92;;;1.27;;
25023;SDS011;13033;50.936;5.334;2023-04-23T14:06:04;3.50;;;1.00;;
25023;SDS011;13033;50.936;5.334;2023-04-23T14:08:30;4.20;;;1.30;;
25023;SDS011;13033;50.936;5.334;2023-04-23T14:10:55;3.72;;;1.55;;
25023;SDS011;13033;50.936;5.334;2023-04-23T14:13:22;2.75;;;1.00;;
25023;SDS011;13033;50.936;5.334;2023-04-23T14:15:47;4.40;;;1.45;;
25023;SDS011;13033;50.936;5.334;2023-04-23T14:18:13;2.95;;;1.20;;
25023;SDS011;13033;50.936;5.334;2023-04-23T14:20:39;2.50;;;1.30;;
25023;SDS011;13033;50.936;5.334;2023-04-23T14:26:03;4.65;;;1.42;;
25023;SDS011;13033;50.936;5.334;2023-04-23T14:28:33;2.40;;;1.27;;
25023;SDS011;13033;50.936;5.334;2023-04-23T14:31:03;2.88;;;1.58;;
25023;SDS011;13033;50.936;5.334;2023-04-23T14:33:28;5.10;;;1.65;;
25023;SDS011;13033;50.936;5.334;2023-04-23T14:35:54;6.72;;;1.90;;
25023;SDS011;13033;50.936;5.334;2023-04-23T14:38:20;5.72;;;1.50;;
25023;SDS011;13033;50.936;5.334;2023-04-23T14:40:45;3.70;;;1.70;;
25023;SDS011;13033;50.936;5.334;2023-04-23T14:43:11;4.72;;;1.88;;